createdAt,value
2024-02-29T00:02:34.688Z,64.30
2024-02-29T00:06:37.616Z,64.30
2024-02-29T00:10:40.425Z,64.40
2024-02-29T00:14:43.831Z,64.30
2024-02-29T00:18:47.127Z,64.40
2024-02-29T00:22:49.942Z,64.50
2024-02-29T00:26:52.734Z,64.50
2024-02-29T00:30:55.531Z,64.60
2024-02-29T00:34:58.546Z,64.60
2024-02-29T00:39:06.420Z,64.60
2024-02-29T00:43:14.807Z,64.50
2024-02-29T00:47:17.512Z,64.50
2024-02-29T00:51:20.892Z,64.50
2024-02-29T00:55:23.919Z,64.40
2024-02-29T00:59:26.632Z,64.40
2024-02-29T01:03:30.824Z,64.30
2024-02-29T01:07:34.761Z,64.30
2024-02-29T01:11:38.283Z,64.20
2024-02-29T01:15:41.050Z,64.20
2024-02-29T01:19:43.939Z,64.30
2024-02-29T01:23:46.803Z,64.30
2024-02-29T01:27:49.597Z,64.40
2024-02-29T01:31:52.742Z,64.50
2024-02-29T01:35:55.498Z,64.60
2024-02-29T01:39:58.234Z,64.60
2024-02-29T01:44:01.239Z,64.70
2024-02-29T01:48:04.359Z,64.70
2024-02-29T01:52:08.661Z,64.70
2024-02-29T01:56:13.915Z,64.70
2024-02-29T02:00:17.171Z,64.70
2024-02-29T02:04:19.908Z,64.70
2024-02-29T02:08:25.114Z,64.70
2024-02-29T02:12:27.972Z,64.70
2024-02-29T02:16:31.588Z,64.60
2024-02-29T02:20:34.547Z,64.60
2024-02-29T02:24:38.254Z,64.60
2024-02-29T02:28:41.034Z,64.50
2024-02-29T02:32:44.281Z,64.50
2024-02-29T02:36:47.150Z,64.40
2024-02-29T02:40:50.032Z,64.30
2024-02-29T02:44:52.945Z,64.10
2024-02-29T02:48:56.159Z,64.00
2024-02-29T02:52:58.991Z,63.90
2024-02-29T02:57:01.727Z,63.80
2024-02-29T03:01:04.719Z,63.60
2024-02-29T03:05:14.083Z,63.50
2024-02-29T03:09:16.944Z,63.10
2024-02-29T03:13:19.983Z,63.10
2024-02-29T03:17:22.937Z,63.00
2024-02-29T03:21:26.085Z,62.80
2024-02-29T03:25:28.857Z,62.70
2024-02-29T03:29:32.709Z,62.50
2024-02-29T03:33:35.643Z,62.60
2024-02-29T03:37:38.659Z,62.50
2024-02-29T03:41:41.509Z,62.60
2024-02-29T03:45:44.296Z,62.60
2024-02-29T03:49:47.276Z,62.80
2024-02-29T03:53:50.034Z,62.90
2024-02-29T03:57:53.178Z,63.00
2024-02-29T04:01:56.758Z,63.10
2024-02-29T04:05:59.775Z,63.20
2024-02-29T04:10:03.594Z,63.40
2024-02-29T04:14:07.625Z,63.50
2024-02-29T04:18:10.444Z,63.60
2024-02-29T04:22:15.475Z,63.70
2024-02-29T04:26:18.780Z,63.90
2024-02-29T04:30:21.994Z,64.00
2024-02-29T04:34:25.138Z,64.10
2024-02-29T04:38:28.044Z,64.20
2024-02-29T04:42:31.786Z,64.30
2024-02-29T04:46:34.564Z,64.60
2024-02-29T04:50:37.327Z,64.70
2024-02-29T04:54:40.108Z,64.80
2024-02-29T04:58:43.074Z,64.80
2024-02-29T05:02:45.968Z,64.90
2024-02-29T05:06:48.843Z,64.90
2024-02-29T05:10:53.395Z,64.90
2024-02-29T05:14:56.209Z,65.10
2024-02-29T05:18:58.936Z,65.30
2024-02-29T05:23:01.900Z,65.30
2024-02-29T05:27:04.673Z,65.30
2024-02-29T05:31:07.637Z,65.20
2024-02-29T05:35:10.663Z,65.20
2024-02-29T05:39:13.466Z,65.20
2024-02-29T05:43:16.460Z,65.20
2024-02-29T05:47:19.650Z,65.10
2024-02-29T05:51:23.100Z,65.20
2024-02-29T05:55:26.366Z,65.20
2024-02-29T05:59:29.495Z,65.10
2024-02-29T06:03:32.408Z,65.10
2024-02-29T06:07:38.118Z,65.10
2024-02-29T06:11:42.732Z,65.10
2024-02-29T06:15:46.303Z,65.00
2024-02-29T06:19:50.173Z,65.00
2024-02-29T06:23:54.984Z,65.00
2024-02-29T06:27:58.701Z,65.00
2024-02-29T06:32:02.042Z,65.10
2024-02-29T06:36:08.177Z,65.10
2024-02-29T06:40:13.350Z,65.10
2024-02-29T06:44:17.624Z,65.10
2024-02-29T06:48:20.673Z,65.10
2024-02-29T06:52:23.576Z,65.00
2024-02-29T06:56:26.542Z,65.00
2024-02-29T07:00:29.730Z,64.90
2024-02-29T07:04:32.505Z,64.90
2024-02-29T07:08:35.845Z,64.80
2024-02-29T07:12:38.608Z,64.80
2024-02-29T07:16:41.410Z,64.80
2024-02-29T07:20:44.280Z,64.90
2024-02-29T07:24:47.106Z,64.80
2024-02-29T07:28:49.868Z,64.80
2024-02-29T07:32:52.646Z,64.80
2024-02-29T07:36:55.711Z,64.70
2024-02-29T07:40:58.579Z,64.70
2024-02-29T07:45:01.410Z,64.60
2024-02-29T07:49:04.236Z,64.50
2024-02-29T07:53:07.103Z,64.40
2024-02-29T07:57:11.156Z,64.30
2024-02-29T08:01:14.640Z,64.00
2024-02-29T08:05:17.646Z,63.60
2024-02-29T08:09:20.408Z,63.60
2024-02-29T08:13:23.584Z,63.60
2024-02-29T08:17:28.779Z,63.60
2024-02-29T08:21:34.874Z,63.80
2024-02-29T08:25:38.811Z,63.90
2024-02-29T08:29:41.818Z,63.90
2024-02-29T08:33:44.683Z,63.60
2024-02-29T08:37:47.700Z,63.30
2024-02-29T08:41:50.497Z,63.20
2024-02-29T08:45:53.926Z,63.10
2024-02-29T08:49:56.714Z,62.90
2024-02-29T08:53:59.628Z,62.80
2024-02-29T08:58:02.561Z,62.80
2024-02-29T09:02:07.038Z,62.60
2024-02-29T09:06:10.184Z,62.50
2024-02-29T09:10:13.907Z,62.30
2024-02-29T09:14:16.918Z,62.40
2024-02-29T09:18:21.446Z,62.20
2024-02-29T09:22:24.243Z,62.10
2024-02-29T09:26:27.275Z,62.00
2024-02-29T09:30:30.748Z,62.00
2024-02-29T09:34:38.413Z,62.10
2024-02-29T09:38:42.565Z,62.10
2024-02-29T09:42:45.859Z,62.10
2024-02-29T09:46:51.680Z,62.20
2024-02-29T09:50:55.761Z,62.30
2024-02-29T09:55:05.237Z,62.30
2024-02-29T09:59:08.667Z,62.40
2024-02-29T10:03:16.137Z,62.30
2024-02-29T10:07:19.007Z,62.40
2024-02-29T10:11:22.518Z,62.50
2024-02-29T10:15:28.997Z,62.50
2024-02-29T10:19:34.286Z,62.30
2024-02-29T10:23:37.363Z,62.30
2024-02-29T10:27:41.643Z,62.40
2024-02-29T10:31:45.023Z,62.30
2024-02-29T10:35:48.603Z,62.20
2024-02-29T10:39:51.916Z,62.10
2024-02-29T10:44:00.283Z,62.00
2024-02-29T10:48:13.300Z,62.00
2024-02-29T10:52:39.860Z,62.00
2024-02-29T10:56:46.169Z,61.90
2024-02-29T11:00:50.090Z,62.10
2024-02-29T11:04:54.393Z,62.20
2024-02-29T11:08:57.697Z,62.20
2024-02-29T11:13:04.836Z,62.10
2024-02-29T11:17:07.675Z,62.20
2024-02-29T11:21:10.555Z,62.20
2024-02-29T11:25:23.105Z,62.00
2024-02-29T11:29:26.176Z,61.70
2024-02-29T11:33:33.748Z,61.70
2024-02-29T11:37:40.873Z,61.60
2024-02-29T11:41:43.728Z,61.50
2024-02-29T11:45:46.827Z,61.50
2024-02-29T11:49:49.843Z,61.50
2024-02-29T11:53:55.093Z,61.40
2024-02-29T11:58:00.809Z,61.50
2024-02-29T12:02:07.059Z,61.40
2024-02-29T12:06:10.163Z,61.50
2024-02-29T12:10:13.070Z,61.50
2024-02-29T12:14:16.156Z,61.40
2024-02-29T12:18:20.356Z,61.50
2024-02-29T12:22:23.220Z,61.30
2024-02-29T12:26:27.431Z,61.20
2024-02-29T12:30:32.937Z,61.40
2024-02-29T12:34:40.006Z,61.40
2024-02-29T12:38:43.864Z,61.50
2024-02-29T12:42:48.047Z,61.50
2024-02-29T12:46:57.242Z,61.60
2024-02-29T12:51:00.258Z,61.80
2024-02-29T12:55:04.503Z,61.90
2024-02-29T12:59:08.470Z,62.20
2024-02-29T13:03:11.794Z,62.60
2024-02-29T13:07:15.288Z,63.00
2024-02-29T13:11:19.466Z,63.30
2024-02-29T13:15:22.332Z,63.50
2024-02-29T13:19:25.163Z,63.60
2024-02-29T13:23:27.978Z,63.60
2024-02-29T13:27:31.179Z,63.80
2024-02-29T13:31:33.982Z,63.90
2024-02-29T13:35:36.812Z,64.20
2024-02-29T13:39:39.738Z,64.30
2024-02-29T13:43:43.634Z,64.40
2024-02-29T13:47:52.334Z,64.50
2024-02-29T13:51:56.048Z,64.70
2024-02-29T13:55:59.320Z,64.60
2024-02-29T14:00:03.661Z,64.50
2024-02-29T14:04:19.480Z,64.40
2024-02-29T14:08:22.541Z,64.50
2024-02-29T14:12:26.389Z,64.40
2024-02-29T14:16:29.508Z,64.30
2024-02-29T14:20:32.321Z,64.20
2024-02-29T14:24:35.213Z,64.00
2024-02-29T14:28:38.935Z,64.00
2024-02-29T14:32:43.130Z,64.00
2024-02-29T14:36:46.073Z,63.90
2024-02-29T14:40:49.339Z,63.70
2024-02-29T14:44:52.150Z,63.50
2024-02-29T14:48:55.173Z,63.50
2024-02-29T14:52:58.219Z,63.30
2024-02-29T14:57:01.806Z,63.30
2024-02-29T15:01:04.937Z,63.20
2024-02-29T15:05:08.651Z,63.00
2024-02-29T15:09:12.013Z,63.00
2024-02-29T15:13:14.838Z,63.00
2024-02-29T15:17:18.598Z,63.10
2024-02-29T15:21:21.373Z,63.10
2024-02-29T15:25:26.680Z,63.30
2024-02-29T15:29:29.775Z,63.40
2024-02-29T15:33:32.860Z,63.60
2024-02-29T15:37:36.034Z,63.70
2024-02-29T15:41:40.524Z,63.80
2024-02-29T15:45:43.442Z,63.90
2024-02-29T15:49:48.968Z,64.00
2024-02-29T15:53:52.290Z,64.10
2024-02-29T15:57:55.323Z,64.20
2024-02-29T16:01:58.289Z,64.30
2024-02-29T16:06:01.153Z,64.30
2024-02-29T16:10:04.299Z,64.40
2024-02-29T16:14:07.316Z,64.50
2024-02-29T16:18:11.998Z,64.70
2024-02-29T16:22:15.029Z,64.90
2024-02-29T16:26:18.363Z,65.00
2024-02-29T16:30:21.261Z,65.00
2024-02-29T16:34:24.145Z,65.10
2024-02-29T16:38:27.089Z,65.10
2024-02-29T16:42:30.093Z,65.10
2024-02-29T16:46:33.065Z,65.20
2024-02-29T16:50:36.620Z,65.20
2024-02-29T16:54:39.421Z,65.20
2024-02-29T16:58:43.706Z,65.30
2024-02-29T17:02:46.669Z,65.30
2024-02-29T17:06:49.909Z,65.30
2024-02-29T17:10:52.842Z,65.40
2024-02-29T17:14:55.915Z,65.50
2024-02-29T17:18:59.252Z,65.60
2024-02-29T17:23:02.059Z,65.70
2024-02-29T17:27:05.386Z,65.80
2024-02-29T17:31:08.397Z,66.00
2024-02-29T17:35:11.559Z,66.10
2024-02-29T17:39:15.046Z,66.10
2024-02-29T17:43:18.473Z,66.20
2024-02-29T17:47:21.493Z,66.20
2024-02-29T17:51:24.419Z,66.30
2024-02-29T17:55:28.721Z,66.50
2024-02-29T17:59:34.174Z,66.50
2024-02-29T18:03:39.551Z,66.50
2024-02-29T18:07:51.164Z,66.50
2024-02-29T18:12:02.168Z,66.60
2024-02-29T18:16:08.131Z,66.70
2024-02-29T18:20:20.691Z,66.80
2024-02-29T18:24:27.541Z,67.10
2024-02-29T18:28:35.534Z,67.20
2024-02-29T18:32:48.751Z,67.30
2024-02-29T18:36:53.949Z,67.60
2024-02-29T18:40:59.328Z,67.70
2024-02-29T18:45:02.646Z,67.90
2024-02-29T18:49:05.912Z,67.90
2024-02-29T18:53:11.546Z,68.10
2024-02-29T18:57:17.011Z,68.20
2024-02-29T19:01:23.529Z,68.30
2024-02-29T19:05:27.485Z,68.50
2024-02-29T19:09:38.158Z,68.60
2024-02-29T19:13:46.449Z,68.80
2024-02-29T19:17:54.381Z,68.90
2024-02-29T19:21:57.442Z,69.10
2024-02-29T19:26:03.037Z,69.10
2024-02-29T19:30:09.814Z,69.30
2024-02-29T19:34:23.712Z,69.40
2024-02-29T19:38:34.864Z,69.40
2024-02-29T19:42:41.651Z,69.50
2024-02-29T19:46:48.052Z,69.50
2024-02-29T19:50:57.377Z,69.60
2024-02-29T19:55:07.214Z,69.60
2024-02-29T19:59:12.536Z,69.80
2024-02-29T20:03:20.963Z,69.90
2024-02-29T20:07:26.273Z,70.30
2024-02-29T20:11:31.929Z,70.60
2024-02-29T20:15:36.845Z,70.70
2024-02-29T20:19:42.134Z,70.80
2024-02-29T20:23:45.116Z,70.90
2024-02-29T20:27:54.996Z,70.90
2024-02-29T20:31:58.120Z,71.20
2024-02-29T20:36:00.999Z,71.00
2024-02-29T20:40:04.104Z,71.10
2024-02-29T20:44:08.094Z,71.10
2024-02-29T20:48:19.316Z,71.10
2024-02-29T20:52:32.580Z,71.20
2024-02-29T20:56:37.819Z,71.40
2024-02-29T21:00:43.840Z,71.30
2024-02-29T21:04:52.551Z,71.50
2024-02-29T21:08:58.270Z,71.50
2024-02-29T21:13:04.620Z,71.70
2024-02-29T21:17:09.923Z,71.70
2024-02-29T21:21:17.561Z,71.80
2024-02-29T21:25:28.362Z,71.80
2024-02-29T21:29:34.283Z,71.90
2024-02-29T21:33:37.015Z,71.90
2024-02-29T21:37:43.192Z,71.80
2024-02-29T21:41:46.318Z,72.00
2024-02-29T21:45:50.837Z,71.90
2024-02-29T21:49:54.010Z,72.00
2024-02-29T21:54:02.060Z,72.10
2024-02-29T21:58:06.386Z,72.20
2024-02-29T22:02:14.069Z,72.20
2024-02-29T22:06:19.272Z,72.30
2024-02-29T22:10:26.842Z,72.30
2024-02-29T22:14:30.069Z,72.30
2024-02-29T22:18:36.021Z,72.40
2024-02-29T22:22:41.117Z,72.50
2024-02-29T22:26:43.975Z,72.60
2024-02-29T22:30:47.943Z,72.70
2024-02-29T22:34:52.891Z,72.70
2024-02-29T22:38:55.841Z,72.90
2024-02-29T22:43:01.472Z,72.90
2024-02-29T22:47:04.629Z,73.10
2024-02-29T22:51:09.495Z,73.10
2024-02-29T22:55:12.558Z,73.20
2024-02-29T22:59:15.378Z,73.40
2024-02-29T23:03:18.118Z,73.50
2024-02-29T23:07:21.558Z,73.50
2024-02-29T23:11:24.475Z,73.60
2024-02-29T23:15:28.027Z,73.80
2024-02-29T23:19:30.938Z,74.00
2024-02-29T23:23:35.467Z,74.10
2024-02-29T23:27:38.656Z,74.10
2024-02-29T23:31:41.425Z,74.20
2024-02-29T23:35:44.483Z,74.80
2024-02-29T23:39:47.707Z,75.10
2024-02-29T23:43:52.743Z,75.10
2024-02-29T23:47:55.769Z,75.10
2024-02-29T23:51:58.636Z,75.10
2024-02-29T23:56:01.438Z,75.10
